Time;durP1;ratioP1;P1;durP2;ratioP2;P2;SDS_P1;SDS_P2;PMS_P1;PMS_P2;Temp;Humidity;BMP_temperature;BMP_pressure;BME280_temperature;BME280_humidity;BME280_pressure;Samples;Min_cycle;Max_cycle;Signal;HPM_P1;HPM_P2
2022/01/10 00:00:10;;;;;;;11.07;5.57;;;;;;;-2.60;100.00;99063.56;5155238;27;20424;-50
2022/01/10 00:02:37;;;;;;;11.73;5.38;;;;;;;-2.63;100.00;99066.84;5154931;27;20080;-50
2022/01/10 00:05:04;;;;;;;12.10;6.15;;;;;;;-2.76;100.00;99067.47;5154908;27;20152;-49
2022/01/10 00:07:30;;;;;;;9.77;4.90;;;;;;;-2.89;100.00;99071.59;5154727;27;20051;-49
2022/01/10 00:09:57;;;;;;;10.85;4.93;;;;;;;-2.81;100.00;99081.72;5155020;27;20050;-49
2022/01/10 00:12:23;;;;;;;10.70;5.03;;;;;;;-2.87;100.00;99080.94;5155061;27;20051;-49
2022/01/10 00:14:50;;;;;;;10.73;4.55;;;;;;;-2.77;100.00;99081.94;5154706;27;20167;-50
2022/01/10 00:17:16;;;;;;;9.63;4.50;;;;;;;-2.85;100.00;99080.66;5154990;27;20114;-49
2022/01/10 00:19:42;;;;;;;12.52;5.22;;;;;;;-2.87;100.00;99091.66;5154597;27;20042;-52
2022/01/10 00:22:09;;;;;;;10.05;4.43;;;;;;;-2.89;100.00;99085.78;5155022;27;20049;-52
2022/01/10 00:24:35;;;;;;;10.88;5.22;;;;;;;-2.84;100.00;99085.75;5154949;27;20051;-53
2022/01/10 00:27:02;;;;;;;11.35;5.43;;;;;;;-2.75;100.00;99094.00;5154720;27;20046;-50
2022/01/10 00:29:28;;;;;;;10.60;5.25;;;;;;;-2.64;100.00;99097.44;5154622;27;20132;-51
2022/01/10 00:31:57;;;;;;;13.73;5.55;;;;;;;-2.74;100.00;99100.19;5154572;27;20046;-48
2022/01/10 00:34:23;;;;;;;13.05;5.28;;;;;;;-2.76;100.00;99094.31;5154565;27;20051;-51
2022/01/10 00:36:49;;;;;;;11.27;5.22;;;;;;;-2.71;100.00;99107.69;5154188;27;20053;-53
2022/01/10 00:39:15;;;;;;;10.65;5.10;;;;;;;-2.66;100.00;99108.44;5154545;27;20055;-50
2022/01/10 00:41:42;;;;;;;10.38;4.45;;;;;;;-2.55;100.00;99103.81;5154193;27;20452;-50
2022/01/10 00:44:09;;;;;;;11.27;4.68;;;;;;;-2.57;100.00;99105.16;5154534;27;20057;-53
2022/01/10 00:46:36;;;;;;;7.47;4.10;;;;;;;-2.57;100.00;99099.78;5154055;27;20047;-50
2022/01/10 00:49:02;;;;;;;9.95;4.55;;;;;;;-2.58;100.00;99104.38;5154396;27;20051;-50
2022/01/10 00:51:29;;;;;;;9.93;4.55;;;;;;;-2.62;100.00;99097.97;5154264;27;20103;-50
2022/01/10 00:53:55;;;;;;;11.02;4.35;;;;;;;-2.66;100.00;99102.28;5154329;27;20053;-50
2022/01/10 00:56:22;;;;;;;8.02;4.68;;;;;;;-2.65;100.00;99106.56;5153867;27;20047;-49
2022/01/10 00:58:48;;;;;;;13.35;4.93;;;;;;;-2.55;100.00;99094.97;5154177;27;20047;-51
2022/01/10 01:01:16;;;;;;;8.15;4.38;;;;;;;-2.54;100.00;99099.22;5153835;27;20187;-50
2022/01/10 01:03:43;;;;;;;8.18;4.25;;;;;;;-2.50;100.00;99094.91;5153626;27;20043;-53
2022/01/10 01:06:11;;;;;;;9.43;4.60;;;;;;;-2.56;100.00;99101.41;5154278;27;20050;-49
2022/01/10 01:08:37;;;;;;;9.85;4.03;;;;;;;-2.67;100.00;99090.72;5153533;27;20102;-51
2022/01/10 01:11:49;;;;;;;10.18;4.82;;;;;;;-2.75;100.00;99095.91;5154013;27;20421;-50
2022/01/10 01:14:24;;;;;;;9.27;4.65;;;;;;;-2.80;100.00;99102.09;5153653;27;20047;-50
2022/01/10 01:17:08;;;;;;;12.70;5.10;;;;;;;-2.73;100.00;99113.34;5153909;27;20046;-51
2022/01/10 01:20:07;;;;;;;15.60;4.60;;;;;;;-2.71;100.00;99113.03;5153317;27;20494;-51
2022/01/10 01:25:18;;;;;;;12.10;4.55;;;;;;;-2.74;100.00;99110.91;5153732;27;20540;-49
2022/01/10 01:27:44;;;;;;;11.18;4.45;;;;;;;-2.71;100.00;99110.34;5153458;27;20137;-49
2022/01/10 01:30:11;;;;;;;12.32;4.10;;;;;;;-2.79;100.00;99106.41;5153504;27;20098;-49
2022/01/10 01:32:38;;;;;;;10.05;3.97;;;;;;;-2.88;100.00;99108.06;5153421;27;20050;-50
2022/01/10 01:35:06;;;;;;;16.25;5.43;;;;;;;-3.00;100.00;99097.69;5153766;27;20114;-50
2022/01/10 01:37:34;;;;;;;9.98;4.38;;;;;;;-3.01;100.00;99106.78;5153385;27;20050;-49
2022/01/10 01:40:01;;;;;;;9.65;4.55;;;;;;;-3.01;100.00;99112.16;5153357;27;20391;-51
2022/01/10 01:42:34;;;;;;;9.45;5.15;;;;;;;-2.92;100.00;99112.38;5153420;27;20493;-50
2022/01/10 01:45:01;;;;;;;8.93;5.28;;;;;;;-2.90;100.00;99116.41;5153352;27;20046;-50
2022/01/10 01:47:28;;;;;;;12.60;5.35;;;;;;;-2.94;100.00;99103.78;5153382;27;20051;-54
2022/01/10 01:49:56;;;;;;;8.15;4.40;;;;;;;-2.96;100.00;99114.81;5153229;27;20078;-49
2022/01/10 01:52:22;;;;;;;10.40;5.40;;;;;;;-3.08;100.00;99115.13;5153258;27;20051;-51
2022/01/10 01:54:49;;;;;;;8.93;5.38;;;;;;;-3.10;100.00;99106.56;5153118;27;20187;-51
2022/01/10 01:57:15;;;;;;;10.23;4.93;;;;;;;-3.09;100.00;99118.09;5153142;27;20077;-49
2022/01/10 01:59:41;;;;;;;13.25;5.50;;;;;;;-3.23;100.00;99117.06;5153046;27;20053;-49
2022/01/10 02:02:07;;;;;;;10.65;5.15;;;;;;;-3.05;100.00;99123.72;5153214;27;20135;-49
2022/01/10 02:04:34;;;;;;;11.80;5.65;;;;;;;-3.05;100.00;99121.81;5152864;27;20053;-49
2022/01/10 02:07:01;;;;;;;14.55;5.78;;;;;;;-3.06;100.00;99120.22;5153008;27;20108;-51
2022/01/10 02:09:27;;;;;;;11.02;4.55;;;;;;;-3.03;100.00;99117.00;5152991;27;20056;-53
2022/01/10 02:11:53;;;;;;;9.60;4.80;;;;;;;-3.07;100.00;99118.59;5152649;27;20102;-51
2022/01/10 02:14:20;;;;;;;11.43;5.82;;;;;;;-3.19;100.00;99118.16;5153072;27;20096;-50
2022/01/10 02:16:54;;;;;;;14.55;6.55;;;;;;;-3.16;100.00;99122.97;5152622;27;20494;-52
2022/01/10 02:19:20;;;;;;;10.75;5.22;;;;;;;-3.10;100.00;99121.84;5151577;27;20050;-49
2022/01/10 02:21:47;;;;;;;13.02;5.50;;;;;;;-3.06;100.00;99128.28;5152639;27;20046;-52
2022/01/10 02:24:13;;;;;;;12.38;5.13;;;;;;;-2.97;100.00;99136.53;5152733;27;20047;-50
2022/01/10 02:26:39;;;;;;;13.80;5.72;;;;;;;-2.92;100.00;99145.38;5152582;27;20054;-54
2022/01/10 02:29:07;;;;;;;9.77;4.97;;;;;;;-2.84;100.00;99139.41;5152491;27;20425;-52
2022/01/10 02:31:35;;;;;;;13.65;5.63;;;;;;;-2.78;100.00;99139.38;5152454;27;20050;-52
2022/01/10 02:34:01;;;;;;;11.38;5.25;;;;;;;-2.76;100.00;99135.34;5152472;27;20050;-51
2022/01/10 02:36:27;;;;;;;10.75;4.90;;;;;;;-2.72;100.00;99143.66;5152475;27;20065;-49
2022/01/10 02:38:56;;;;;;;12.35;5.50;;;;;;;-2.84;100.00;99141.28;5152272;27;20051;-51
2022/01/10 02:41:25;;;;;;;8.65;4.47;;;;;;;-2.82;100.00;99132.97;5152668;27;20055;-53
2022/01/10 02:43:52;;;;;;;11.75;4.75;;;;;;;-2.90;100.00;99137.03;5152252;27;20053;-49
2022/01/10 02:46:18;;;;;;;11.70;4.72;;;;;;;-3.04;100.00;99125.31;5152337;27;20501;-50
2022/01/10 02:48:45;;;;;;;11.98;4.80;;;;;;;-3.03;100.00;99127.72;5152112;27;20054;-53
2022/01/10 02:51:11;;;;;;;7.20;4.28;;;;;;;-2.99;100.00;99127.97;5152212;27;20047;-50
2022/01/10 02:53:38;;;;;;;10.20;4.45;;;;;;;-3.08;100.00;99122.38;5152101;27;20093;-53
2022/01/10 02:56:05;;;;;;;7.88;4.10;;;;;;;-3.16;100.00;99117.59;5152422;27;20057;-52
2022/01/10 02:58:31;;;;;;;8.30;3.45;;;;;;;-3.07;100.00;99118.59;5152111;27;20468;-50
2022/01/10 03:00:58;;;;;;;5.20;3.22;;;;;;;-2.96;100.00;99111.34;5151923;27;20054;-50
2022/01/10 03:03:26;;;;;;;8.57;3.58;;;;;;;-3.00;100.00;99105.72;5152280;27;20050;-53
2022/01/10 03:05:52;;;;;;;10.13;3.83;;;;;;;-3.00;100.00;99104.91;5151876;27;20043;-49
2022/01/10 03:08:18;;;;;;;7.38;3.05;;;;;;;-2.83;100.00;99108.03;5152034;27;20061;-49
2022/01/10 03:10:44;;;;;;;9.80;4.00;;;;;;;-2.89;100.00;99090.34;5151731;27;20046;-51
2022/01/10 03:13:11;;;;;;;8.73;3.97;;;;;;;-2.90;100.00;99091.41;5152156;27;20092;-53
2022/01/10 03:15:38;;;;;;;7.90;3.55;;;;;;;-3.03;100.00;99082.13;5151964;27;20051;-53
2022/01/10 03:18:04;;;;;;;9.40;4.22;;;;;;;-3.10;100.00;99079.75;5151860;27;20142;-54
2022/01/10 03:20:30;;;;;;;9.95;3.92;;;;;;;-3.24;100.00;99080.63;5151377;27;20051;-53
2022/01/10 03:22:56;;;;;;;5.63;3.63;;;;;;;-3.33;100.00;99089.25;5151706;27;20054;-49
2022/01/10 03:25:23;;;;;;;7.53;4.53;;;;;;;-3.16;100.00;99112.25;5151566;27;20050;-50
2022/01/10 03:27:49;;;;;;;7.03;3.70;;;;;;;-3.13;100.00;99117.06;5151508;27;20515;-50
2022/01/10 03:30:17;;;;;;;7.97;4.22;;;;;;;-3.20;100.00;99106.63;5151713;27;20107;-50
2022/01/10 03:32:44;;;;;;;11.75;4.25;;;;;;;-3.20;100.00;99124.56;5151603;27;20050;-51
2022/01/10 03:35:11;;;;;;;8.30;3.75;;;;;;;-3.13;100.00;99133.16;5151612;27;20050;-49
2022/01/10 03:37:38;;;;;;;10.15;4.25;;;;;;;-2.96;100.00;99136.28;5151346;27;20090;-50
2022/01/10 03:40:06;;;;;;;9.65;5.10;;;;;;;-2.92;100.00;99131.94;5151521;27;20486;-49
2022/01/10 03:42:33;;;;;;;10.75;4.25;;;;;;;-2.79;100.00;99135.91;5151217;27;20133;-50
2022/01/10 03:44:59;;;;;;;9.50;4.85;;;;;;;-2.76;100.00;99132.66;5151585;27;20047;-53
2022/01/10 03:47:26;;;;;;;9.25;4.50;;;;;;;-2.71;100.00;99139.88;5151290;27;20089;-49
2022/01/10 03:49:52;;;;;;;11.65;4.60;;;;;;;-2.72;100.00;99127.53;5151345;27;20102;-54
2022/01/10 03:52:18;;;;;;;12.07;4.93;;;;;;;-2.73;100.00;99134.81;5151022;27;20042;-51
2022/01/10 03:54:45;;;;;;;10.55;4.38;;;;;;;-2.69;100.00;99133.16;5151532;27;20043;-53
2022/01/10 03:57:11;;;;;;;9.43;5.00;;;;;;;-2.56;100.00;99142.47;5151223;27;20054;-51
2022/01/10 03:59:37;;;;;;;9.80;4.90;;;;;;;-2.54;100.00;99142.97;5151078;27;20455;-51
2022/01/10 04:02:04;;;;;;;13.57;5.55;;;;;;;-2.65;100.00;99126.16;5151350;27;20413;-51
2022/01/10 04:04:33;;;;;;;6.32;4.05;;;;;;;-2.74;100.00;99156.53;5151161;27;20047;-53
2022/01/10 04:06:59;;;;;;;14.93;6.22;;;;;;;-2.87;100.00;99149.88;5151219;27;20106;-50
2022/01/10 04:09:25;;;;;;;10.10;5.88;;;;;;;-2.94;100.00;99152.88;5151265;27;20051;-49
2022/01/10 04:11:52;;;;;;;13.45;6.35;;;;;;;-2.76;100.00;99177.50;5151075;27;20505;-51
2022/01/10 04:14:18;;;;;;;11.52;6.13;;;;;;;-2.72;100.00;99187.38;5151140;27;20056;-51
2022/01/10 04:16:44;;;;;;;16.83;6.07;;;;;;;-2.78;100.00;99176.94;5150909;27;20059;-49
2022/01/10 04:19:10;;;;;;;17.70;6.93;;;;;;;-2.86;100.00;99176.47;5150983;27;20382;-50
2022/01/10 04:21:37;;;;;;;13.80;7.07;;;;;;;-2.95;100.00;99188.03;5151145;27;20054;-49
2022/01/10 04:24:04;;;;;;;18.35;6.88;;;;;;;-2.89;100.00;99190.41;5150793;27;20425;-50
2022/01/10 04:26:30;;;;;;;14.70;7.00;;;;;;;-2.99;100.00;99203.88;5150703;27;20051;-50
2022/01/10 04:28:57;;;;;;;19.17;7.18;;;;;;;-2.79;100.00;99205.66;5150851;27;20047;-50
2022/01/10 04:31:23;;;;;;;9.90;4.55;;;;;;;-2.85;100.00;99215.59;5150624;27;20142;-50
2022/01/10 04:33:49;;;;;;;16.45;6.47;;;;;;;-2.89;100.00;99224.50;5150964;27;20185;-49
2022/01/10 04:36:15;;;;;;;13.07;6.90;;;;;;;-2.81;100.00;99223.13;5150752;27;20042;-49
2022/01/10 04:38:43;;;;;;;17.42;6.47;;;;;;;-2.81;100.00;99215.84;5151038;27;20097;-49
2022/01/10 04:41:10;;;;;;;10.02;4.45;;;;;;;-2.82;100.00;99227.69;5150785;27;20157;-50
2022/01/10 04:43:37;;;;;;;12.20;6.57;;;;;;;-2.88;100.00;99212.69;5153012;27;20046;-50
2022/01/10 04:46:03;;;;;;;14.75;6.45;;;;;;;-2.93;100.00;99218.88;5154328;27;20051;-49
2022/01/10 04:48:30;;;;;;;13.13;6.68;;;;;;;-2.78;100.00;99235.97;5154166;27;20644;-50
2022/01/10 04:53:46;;;;;;;13.65;6.05;;;;;;;-2.54;100.00;99246.88;5154070;27;20085;-51
2022/01/10 04:56:13;;;;;;;13.45;6.20;;;;;;;-2.59;100.00;99245.03;5154295;27;20046;-53
2022/01/10 04:58:40;;;;;;;13.38;6.18;;;;;;;-2.54;100.00;99238.81;5160887;27;20080;-50
2022/01/10 05:01:06;;;;;;;17.27;6.10;;;;;;;-2.53;100.00;99235.88;5165921;27;20126;-53
2022/01/10 05:03:33;;;;;;;31.83;7.75;;;;;;;-2.41;100.00;99243.56;5175032;27;20054;-55
2022/01/10 05:06:01;;;;;;;15.82;7.30;;;;;;;-2.09;100.00;99253.84;5174902;27;20481;-53
2022/01/10 05:08:27;;;;;;;12.40;6.47;;;;;;;-1.98;100.00;99249.22;5174709;27;20064;-58
2022/01/10 05:10:55;;;;;;;16.23;7.28;;;;;;;-1.71;100.00;99260.28;5166209;27;20043;-51
2022/01/10 05:13:22;;;;;;;13.25;6.55;;;;;;;-1.63;100.00;99234.69;5153855;27;20060;-51
2022/01/10 05:15:50;;;;;;;17.73;7.75;;;;;;;-1.63;100.00;99220.41;5162373;27;20058;-58
2022/01/10 05:18:17;;;;;;;12.20;6.45;;;;;;;-1.46;100.00;99213.56;5164115;27;20062;-55
2022/01/10 05:20:43;;;;;;;15.95;6.25;;;;;;;-1.46;100.00;99175.91;5174033;27;20046;-56
2022/01/10 05:23:10;;;;;;;12.50;6.60;;;;;;;-1.53;100.00;99131.63;5174748;27;20074;-51
2022/01/10 05:25:40;;;;;;;17.45;7.63;;;;;;;-1.33;100.00;99131.41;5174548;27;20046;-58
2022/01/10 05:28:08;;;;;;;13.82;7.18;;;;;;;-1.47;100.00;99090.94;5164884;27;20146;-57
2022/01/10 05:30:34;;;;;;;13.05;6.55;;;;;;;-1.42;100.00;99080.13;5153295;27;20100;-54
2022/01/10 05:33:00;;;;;;;13.48;6.75;;;;;;;-1.46;100.00;99062.19;5153236;27;20043;-59
2022/01/10 05:35:27;;;;;;;13.65;7.07;;;;;;;-1.26;100.00;99096.09;5152953;27;20046;-58
2022/01/10 05:37:53;;;;;;;13.88;6.85;;;;;;;-1.24;100.00;99075.06;5159714;27;20054;-57
2022/01/10 05:40:19;;;;;;;16.20;7.15;;;;;;;-1.28;100.00;99049.84;5173739;27;20053;-56
2022/01/10 05:42:46;;;;;;;14.18;7.10;;;;;;;-1.32;100.00;99021.94;5174083;27;20420;-57
2022/01/10 05:45:13;;;;;;;12.32;6.22;;;;;;;-1.43;100.00;98997.06;5164760;27;20061;-57
2022/01/10 05:47:42;;;;;;;17.83;7.05;;;;;;;-1.52;100.00;99010.34;5152886;27;20128;-54
2022/01/10 05:50:12;;;;;;;21.08;7.20;;;;;;;-1.54;100.00;99022.47;5152960;27;20046;-51
2022/01/10 05:52:38;;;;;;;14.88;7.03;;;;;;;-1.61;100.00;99049.72;5153151;27;20134;-54
2022/01/10 05:55:06;;;;;;;12.88;6.65;;;;;;;-1.38;100.00;99084.94;5158806;27;20046;-55
2022/01/10 05:57:33;;;;;;;13.88;7.13;;;;;;;-1.42;100.00;99068.56;5173599;27;20054;-52
2022/01/10 05:59:59;;;;;;;15.93;7.35;;;;;;;-1.22;100.00;99078.28;5173474;27;20046;-59
2022/01/10 06:02:26;;;;;;;15.27;7.28;;;;;;;-1.29;100.00;99050.94;5173630;27;20050;-56
2022/01/10 06:04:52;;;;;;;10.75;6.25;;;;;;;-1.32;100.00;99022.72;5153362;27;20082;-56
2022/01/10 06:07:18;;;;;;;12.75;7.20;;;;;;;-1.22;100.00;99049.47;5152249;27;20047;-58
2022/01/10 06:09:44;;;;;;;19.02;7.57;;;;;;;-1.28;100.00;99004.91;5152489;27;20073;-55
2022/01/10 06:12:11;;;;;;;15.07;7.43;;;;;;;-1.24;100.00;99007.81;5153462;27;20046;-55
2022/01/10 06:14:37;;;;;;;11.30;6.00;;;;;;;-1.16;100.00;98995.63;5152639;27;20103;-54
2022/01/10 06:17:04;;;;;;;12.90;7.68;;;;;;;-0.88;100.00;99010.00;5152522;27;20061;-52
2022/01/10 06:19:31;;;;;;;15.32;6.40;;;;;;;0.38;100.00;99156.31;5152271;27;20509;-55
2022/01/10 06:21:57;;;;;;;14.32;6.93;;;;;;;0.19;100.00;98878.69;5152278;27;20057;-53
2022/01/10 06:24:24;;;;;;;11.27;6.38;;;;;;;-0.37;100.00;98664.38;5168730;27;20103;-52
2022/01/10 06:26:50;;;;;;;13.15;6.38;;;;;;;-1.05;100.00;98571.97;5173278;27;20572;-56
2022/01/10 06:29:16;;;;;;;10.82;6.50;;;;;;;-1.40;100.00;98589.66;5171263;27;20465;-56
2022/01/10 06:31:42;;;;;;;15.30;7.20;;;;;;;-1.62;100.00;98668.31;5173078;27;20065;-54
2022/01/10 06:34:09;;;;;;;10.15;5.68;;;;;;;-1.73;100.00;98730.31;5173090;27;20074;-52
2022/01/10 06:36:36;;;;;;;12.77;6.78;;;;;;;-1.65;100.00;98828.28;5173252;27;20497;-55
2022/01/10 06:39:02;;;;;;;13.50;7.40;;;;;;;-1.72;100.00;98865.47;5172351;27;20561;-56
2022/01/10 06:41:28;;;;;;;16.15;7.28;;;;;;;-1.74;100.00;98894.53;5172704;27;20107;-57
2022/01/10 06:43:54;;;;;;;13.35;7.03;;;;;;;-1.77;100.00;98912.03;5173068;27;20133;-56
2022/01/10 06:46:21;;;;;;;13.32;6.28;;;;;;;-1.74;100.00;98938.31;5172688;27;20064;-56
2022/01/10 06:48:47;;;;;;;13.75;6.80;;;;;;;-1.84;100.00;98973.38;5170831;27;20096;-57
2022/01/10 06:51:13;;;;;;;15.15;7.35;;;;;;;-1.79;100.00;99024.41;5172980;27;20072;-55
2022/01/10 06:53:40;;;;;;;14.80;7.82;;;;;;;-1.78;100.00;99050.19;5172619;27;20497;-57
2022/01/10 06:56:06;;;;;;;14.10;7.20;;;;;;;-1.97;100.00;99041.25;5173072;27;20132;-56
2022/01/10 06:58:33;;;;;;;17.60;8.40;;;;;;;-2.12;100.00;99066.38;5156169;27;20078;-56
2022/01/10 07:00:59;;;;;;;15.80;7.28;;;;;;;-1.95;100.00;99149.25;5152093;27;20047;-56
2022/01/10 07:03:25;;;;;;;16.27;7.82;;;;;;;-2.02;100.00;99146.88;5151535;27;20425;-54
2022/01/10 07:05:51;;;;;;;14.43;7.07;;;;;;;-1.99;100.00;99150.91;5151695;27;20053;-56
2022/01/10 07:08:19;;;;;;;17.33;7.65;;;;;;;-1.89;100.00;99183.03;5165561;27;20488;-55
2022/01/10 07:10:46;;;;;;;16.80;7.45;;;;;;;-1.80;100.00;99180.53;5172483;27;20052;-55
2022/01/10 07:13:12;;;;;;;12.80;6.90;;;;;;;-1.85;100.00;99156.41;5160946;27;20138;-55
2022/01/10 07:15:39;;;;;;;16.42;7.60;;;;;;;-1.79;100.00;99150.69;5151442;27;20078;-55
2022/01/10 07:18:05;;;;;;;17.08;6.45;;;;;;;-1.71;100.00;99125.88;5163279;27;20054;-55
2022/01/10 07:20:33;;;;;;;13.60;6.75;;;;;;;-1.66;100.00;99098.97;5171341;27;20046;-53
2022/01/10 07:22:59;;;;;;;12.63;6.50;;;;;;;-1.82;100.00;99048.34;5171651;27;20077;-56
2022/01/10 07:25:26;;;;;;;11.88;6.90;;;;;;;-1.57;100.00;99072.22;5172166;27;20496;-55
2022/01/10 07:27:52;;;;;;;12.88;6.95;;;;;;;-1.70;100.00;99033.44;5162049;27;20050;-55
2022/01/10 07:30:19;;;;;;;14.32;7.30;;;;;;;-1.55;100.00;99045.88;5151412;27;20544;-52
2022/01/10 07:32:45;;;;;;;13.30;7.68;;;;;;;-1.57;100.00;99026.53;5151150;27;20537;-55
2022/01/10 07:35:11;;;;;;;15.38;6.63;;;;;;;-1.47;100.00;99037.16;5151099;27;20224;-54
2022/01/10 07:37:38;;;;;;;16.58;7.30;;;;;;;-1.35;100.00;99026.00;5158092;27;20054;-56
2022/01/10 07:40:06;;;;;;;11.02;6.63;;;;;;;-1.37;100.00;99003.16;5171917;27;20051;-53
2022/01/10 07:42:32;;;;;;;10.90;6.07;;;;;;;-1.33;100.00;99007.69;5172001;27;20050;-51
2022/01/10 07:44:59;;;;;;;12.60;7.53;;;;;;;-1.42;100.00;98990.59;5170105;27;20053;-53
2022/01/10 07:47:26;;;;;;;17.23;7.60;;;;;;;-1.72;100.00;98946.09;5151029;27;20046;-54
2022/01/10 07:49:52;;;;;;;17.75;6.95;;;;;;;-1.91;100.00;98971.03;5151188;27;20525;-54
2022/01/10 07:52:18;;;;;;;15.00;7.95;;;;;;;-1.72;100.00;99048.25;5151050;27;20053;-52
2022/01/10 07:54:44;;;;;;;18.40;7.05;;;;;;;-1.28;100.00;99109.00;5151158;27;20047;-55
2022/01/10 07:57:11;;;;;;;12.48;6.10;;;;;;;-1.10;100.00;99073.28;5151989;27;20047;-51
2022/01/10 07:59:37;;;;;;;13.55;7.38;;;;;;;-1.20;100.00;98963.94;5152729;27;20055;-53
2022/01/10 08:02:04;;;;;;;14.93;7.18;;;;;;;-1.46;100.00;98925.84;5157925;27;20046;-58
2022/01/10 08:04:30;;;;;;;11.55;5.50;;;;;;;-1.62;100.00;98896.78;5171443;27;20050;-56
2022/01/10 08:06:57;;;;;;;12.85;7.28;;;;;;;-1.83;100.00;98878.28;5157004;27;20070;-56
2022/01/10 08:09:23;;;;;;;16.75;7.25;;;;;;;-1.87;100.00;98930.97;5160236;27;20058;-54
2022/01/10 08:11:49;;;;;;;12.20;6.28;;;;;;;-1.59;100.00;98992.97;5164090;27;20057;-55
2022/01/10 08:14:15;;;;;;;16.98;6.55;;;;;;;-1.66;100.00;98932.31;5150546;27;20094;-53
2022/01/10 08:16:42;;;;;;;15.35;7.20;;;;;;;-1.62;100.00;98919.09;5150595;27;20081;-54
2022/01/10 08:19:08;;;;;;;11.70;6.75;;;;;;;-1.23;100.00;98916.09;5167591;27;20070;-55
2022/01/10 08:21:35;;;;;;;15.02;7.10;;;;;;;-1.32;100.00;98861.38;5175006;27;20049;-56
2022/01/10 08:24:01;;;;;;;12.57;6.68;;;;;;;-1.18;100.00;98834.50;5174903;27;20054;-55
2022/01/10 08:26:28;;;;;;;14.10;6.72;;;;;;;-0.85;100.00;98794.09;5174986;27;20066;-58
2022/01/10 08:28:55;;;;;;;12.55;6.57;;;;;;;-0.79;100.00;98742.56;5174834;27;20050;-55
2022/01/10 08:31:21;;;;;;;11.27;6.72;;;;;;;-0.58;100.00;98704.44;5174869;27;20046;-57
2022/01/10 08:33:48;;;;;;;14.95;7.00;;;;;;;-0.31;100.00;98642.41;5174685;27;20050;-55
2022/01/10 08:36:15;;;;;;;13.15;6.80;;;;;;;-0.10;100.00;98571.88;5174836;27;20054;-57
2022/01/10 08:38:41;;;;;;;12.55;6.30;;;;;;;0.06;100.00;98505.69;5175071;27;20504;-57
2022/01/10 08:41:08;;;;;;;10.30;6.25;;;;;;;-0.06;100.00;98460.47;5175113;27;20518;-55
2022/01/10 08:43:34;;;;;;;10.13;6.57;;;;;;;-0.41;100.00;98453.34;5174603;27;20046;-57
2022/01/10 08:46:00;;;;;;;11.85;7.10;;;;;;;-0.58;100.00;98473.69;5174469;27;20056;-56
2022/01/10 08:48:27;;;;;;;16.85;6.10;;;;;;;-0.82;100.00;98482.09;5174325;27;20062;-56
2022/01/10 08:50:53;;;;;;;12.20;7.10;;;;;;;-1.04;100.00;98534.00;5174542;27;20050;-56
2022/01/10 08:53:20;;;;;;;13.00;7.70;;;;;;;-1.17;100.00;98577.88;5174781;27;20050;-56
2022/01/10 08:55:47;;;;;;;16.65;8.25;;;;;;;-0.97;100.00;98623.19;5159248;27;20106;-55
2022/01/10 08:58:13;;;;;;;12.88;6.60;;;;;;;-1.04;100.00;98622.00;5153609;27;20142;-57
2022/01/10 09:00:40;;;;;;;11.48;6.40;;;;;;;-1.11;100.00;98637.75;5153391;27;20051;-56
2022/01/10 09:03:06;;;;;;;12.15;6.25;;;;;;;-1.16;100.00;98656.69;5153502;27;20046;-57
2022/01/10 09:05:33;;;;;;;14.85;7.13;;;;;;;-1.28;100.00;98665.25;5153709;27;20043;-54
2022/01/10 09:08:01;;;;;;;13.45;6.22;;;;;;;-1.21;100.00;98700.59;5153532;27;20046;-56
2022/01/10 09:10:28;;;;;;;9.82;6.20;;;;;;;-1.00;100.00;98717.97;5153637;27;20562;-57
2022/01/10 09:12:55;;;;;;;14.52;7.32;;;;;;;-0.84;100.00;98710.34;5153792;27;20382;-60
2022/01/10 09:15:21;;;;;;;11.77;6.25;;;;;;;-1.07;100.00;98654.88;5164301;27;20061;-56
2022/01/10 09:17:48;;;;;;;13.43;6.72;;;;;;;-1.21;100.00;98661.06;5154052;27;20099;-57
2022/01/10 09:20:14;;;;;;;12.93;6.50;;;;;;;-1.45;100.00;98682.75;5153220;27;20129;-55
2022/01/10 09:22:40;;;;;;;14.57;7.30;;;;;;;-1.72;100.00;98690.78;5153411;27;20047;-58
2022/01/10 09:25:07;;;;;;;11.63;6.78;;;;;;;-1.94;100.00;98739.78;5153829;27;20186;-57
2022/01/10 09:27:34;;;;;;;12.45;6.53;;;;;;;-1.91;100.00;98814.41;5170711;27;20073;-58
2022/01/10 09:30:00;;;;;;;11.75;6.53;;;;;;;-2.13;100.00;98848.03;5173960;27;20465;-57
2022/01/10 09:32:27;;;;;;;14.35;7.20;;;;;;;-1.73;100.00;98950.69;5174016;27;20050;-57
2022/01/10 09:34:53;;;;;;;11.20;6.60;;;;;;;-1.71;100.00;98932.38;5173900;27;20050;-57
2022/01/10 09:37:19;;;;;;;11.23;6.80;;;;;;;-1.94;100.00;98906.34;5160104;27;20061;-58
2022/01/10 09:39:45;;;;;;;15.57;7.22;;;;;;;-1.85;100.00;98926.13;5153606;27;20082;-58
2022/01/10 09:42:13;;;;;;;12.52;6.65;;;;;;;-1.79;100.00;98935.72;5163565;27;20134;-53
2022/01/10 09:44:40;;;;;;;10.65;6.30;;;;;;;-1.58;100.00;98952.34;5152734;27;20051;-53
2022/01/10 09:47:06;;;;;;;10.70;6.00;;;;;;;-1.49;100.00;98922.94;5161459;27;20098;-53
2022/01/10 09:49:33;;;;;;;11.98;5.50;;;;;;;-1.29;100.00;98900.31;5171710;27;20060;-52
2022/01/10 09:51:59;;;;;;;9.80;6.00;;;;;;;-1.34;100.00;98844.72;5170355;27;20042;-53
2022/01/10 09:54:25;;;;;;;14.30;5.82;;;;;;;-1.43;100.00;98816.91;5174007;27;20042;-52
2022/01/10 09:56:51;;;;;;;12.95;6.70;;;;;;;-1.27;100.00;98812.06;5172391;27;20579;-51
2022/01/10 09:59:17;;;;;;;10.60;5.43;;;;;;;-0.89;100.00;98834.25;5173419;27;20803;-51
2022/01/10 10:01:48;;;;;;;9.68;5.20;;;;;;;-0.49;100.00;98769.97;5173243;27;20174;-54
2022/01/10 10:04:15;;;;;;;11.40;5.63;;;;;;;-0.17;100.00;98665.81;5166995;27;20051;-53
2022/01/10 10:06:41;;;;;;;11.82;6.38;;;;;;;-0.36;100.00;98580.59;5170590;27;20528;-53
2022/01/10 10:09:09;;;;;;;8.85;5.80;;;;;;;-0.23;100.00;98554.69;5152431;27;20059;-53
2022/01/10 10:11:41;;;;;;;12.90;6.75;;;;;;;-0.26;100.00;98534.56;5152225;27;20111;-52
2022/01/10 10:14:08;;;;;;;12.88;6.80;;;;;;;-0.21;100.00;98506.69;5156091;27;20054;-55
2022/01/10 10:16:36;;;;;;;16.42;6.75;;;;;;;-0.34;100.00;98494.09;5165836;27;20149;-56
2022/01/10 10:19:04;;;;;;;15.80;6.50;;;;;;;-0.55;100.00;98499.22;5151967;27;20429;-51
2022/01/10 10:21:32;;;;;;;13.32;6.80;;;;;;;-0.68;100.00;98516.22;5159473;27;20042;-54
2022/01/10 10:23:59;;;;;;;12.60;6.43;;;;;;;-0.59;100.00;98542.13;5172877;27;20127;-52
2022/01/10 10:26:26;;;;;;;10.43;6.43;;;;;;;-0.64;100.00;98527.97;5169081;27;20133;-55
2022/01/10 10:28:54;;;;;;;14.55;6.82;;;;;;;-0.68;100.00;98549.31;5155589;27;20089;-52
2022/01/10 10:31:25;;;;;;;12.40;6.45;;;;;;;-0.74;100.00;98555.94;5151932;27;20055;-54
2022/01/10 10:33:53;;;;;;;15.40;6.30;;;;;;;-0.62;100.00;98574.25;5154314;27;20121;-53
2022/01/10 10:36:20;;;;;;;12.35;6.22;;;;;;;-0.64;100.00;98584.50;5160586;27;20095;-55
2022/01/10 10:38:46;;;;;;;12.80;6.00;;;;;;;-0.80;100.00;98578.66;5163969;27;20046;-53
2022/01/10 10:41:13;;;;;;;14.98;7.13;;;;;;;-0.71;100.00;98590.31;5172273;27;20068;-52
2022/01/10 10:43:41;;;;;;;15.77;6.65;;;;;;;-0.61;100.00;98608.91;5172032;27;20057;-52
2022/01/10 10:46:12;;;;;;;10.60;5.78;;;;;;;-0.41;100.00;98621.13;5172738;27;20050;-53
2022/01/10 10:48:40;;;;;;;11.95;6.53;;;;;;;-0.46;100.00;98574.69;5160917;27;20057;-50
2022/01/10 10:51:06;;;;;;;12.02;6.07;;;;;;;0.01;100.00;98605.56;5151987;27;20051;-54
2022/01/10 10:53:33;;;;;;;14.18;6.38;;;;;;;0.14;100.00;98544.59;5152819;27;20817;-53
2022/01/10 10:56:01;;;;;;;10.30;5.90;;;;;;;0.07;100.00;98510.00;5172565;27;20169;-51
2022/01/10 10:58:28;;;;;;;13.43;6.80;;;;;;;0.01;100.00;98510.44;5163330;27;20059;-53
2022/01/10 11:00:55;;;;;;;13.63;6.22;;;;;;;0.21;100.00;98517.97;5157370;27;20080;-54
2022/01/10 11:03:22;;;;;;;11.35;6.35;;;;;;;0.06;100.00;98507.59;5172561;27;20563;-51
2022/01/10 11:05:49;;;;;;;12.98;6.85;;;;;;;0.38;100.00;98515.31;5170733;27;20050;-50
2022/01/10 11:08:16;;;;;;;12.07;5.60;;;;;;;0.61;100.00;98501.72;5159413;27;20469;-55
2022/01/10 11:10:43;;;;;;;11.43;6.20;;;;;;;0.64;100.00;98474.91;5159613;27;20090;-55
2022/01/10 11:13:11;;;;;;;11.75;6.80;;;;;;;0.74;100.00;98468.41;5151771;27;20460;-53
2022/01/10 11:15:38;;;;;;;12.57;5.95;;;;;;;0.88;100.00;98470.94;5151283;27;20066;-54
2022/01/10 11:18:07;;;;;;;12.07;5.95;;;;;;;0.97;100.00;98468.22;5151123;27;20425;-55
2022/01/10 11:20:41;;;;;;;12.90;6.13;;;;;;;0.88;100.00;98462.84;5150595;27;20050;-54
2022/01/10 11:23:09;;;;;;;10.40;6.00;;;;;;;0.61;100.00;98475.53;5151436;27;20118;-56